createdAt,value
2018-01-17T00:00:14.620Z,988.47
2018-01-17T00:01:14.568Z,988.46
2018-01-17T00:02:14.520Z,988.42
2018-01-17T00:03:14.482Z,988.44
2018-01-17T00:04:14.435Z,988.41
2018-01-17T00:05:14.382Z,988.42
2018-01-17T00:06:14.335Z,988.41
2018-01-17T00:07:14.287Z,988.40
2018-01-17T00:08:14.236Z,988.36
2018-01-17T00:09:14.187Z,988.33
2018-01-17T00:10:14.137Z,988.32
2018-01-17T00:11:14.092Z,988.26
2018-01-17T00:12:14.040Z,988.25
2018-01-17T00:13:13.988Z,988.18
2018-01-17T00:14:13.931Z,988.11
2018-01-17T00:15:13.881Z,988.12
2018-01-17T00:16:13.831Z,988.14
2018-01-17T00:17:13.786Z,988.12
2018-01-17T00:18:13.734Z,988.12
2018-01-17T00:19:13.686Z,988.11
2018-01-17T00:20:13.632Z,988.13
2018-01-17T00:21:13.583Z,988.11
2018-01-17T00:22:13.535Z,988.15
2018-01-17T00:23:13.487Z,988.13
2018-01-17T00:24:13.444Z,988.13
2018-01-17T00:25:13.387Z,988.04
2018-01-17T00:26:13.341Z,988.04
2018-01-17T00:27:13.288Z,988.05
2018-01-17T00:28:13.242Z,988.02
2018-01-17T00:29:13.192Z,988.04
2018-01-17T00:30:13.146Z,988.01
2018-01-17T00:31:13.102Z,987.93
2018-01-17T00:32:13.047Z,987.93
2018-01-17T00:33:12.998Z,987.94
2018-01-17T00:34:12.944Z,987.99
2018-01-17T00:35:12.896Z,987.99
2018-01-17T00:36:12.852Z,987.99
2018-01-17T00:37:12.798Z,987.98
2018-01-17T00:38:12.748Z,987.93
2018-01-17T00:39:12.702Z,987.99
2018-01-17T00:40:12.653Z,987.94
2018-01-17T00:41:12.600Z,987.93
2018-01-17T00:42:12.553Z,987.89
2018-01-17T00:43:12.506Z,987.89
2018-01-17T00:44:12.453Z,987.90
2018-01-17T00:45:12.415Z,987.94
2018-01-17T00:46:12.358Z,987.95
2018-01-17T00:47:12.313Z,987.98
2018-01-17T00:48:12.258Z,987.98
2018-01-17T00:49:12.214Z,988.02
2018-01-17T00:50:12.162Z,988.00
2018-01-17T00:51:12.112Z,988.02
2018-01-17T00:52:12.067Z,988.06
2018-01-17T00:53:12.016Z,988.06
2018-01-17T00:54:11.968Z,988.16
2018-01-17T00:55:11.921Z,988.10
2018-01-17T00:56:11.867Z,988.16
2018-01-17T00:57:11.818Z,988.00
2018-01-17T00:58:11.768Z,988.02
2018-01-17T00:59:11.725Z,988.12
2018-01-17T01:00:11.675Z,988.09
2018-01-17T01:01:11.623Z,988.02
2018-01-17T01:02:11.575Z,988.05
2018-01-17T01:03:11.525Z,988.00
2018-01-17T01:04:11.479Z,988.06
2018-01-17T01:05:11.429Z,987.99
2018-01-17T01:06:11.384Z,987.96
2018-01-17T01:07:11.329Z,988.00
2018-01-17T01:08:11.281Z,987.90
2018-01-17T01:09:11.234Z,987.94
2018-01-17T01:10:11.200Z,987.92
2018-01-17T01:11:11.134Z,987.88
2018-01-17T01:12:11.091Z,987.85
2018-01-17T01:13:11.037Z,987.84
2018-01-17T01:14:10.990Z,987.88
2018-01-17T01:15:10.941Z,987.85
2018-01-17T01:16:10.891Z,987.84
2018-01-17T01:17:10.841Z,988.02
2018-01-17T01:18:10.794Z,987.90
2018-01-17T01:19:10.741Z,988.05
2018-01-17T01:20:10.693Z,987.99
2018-01-17T01:21:10.642Z,987.86
2018-01-17T01:22:10.594Z,987.99
2018-01-17T01:23:10.555Z,988.12
2018-01-17T01:24:10.497Z,988.13
2018-01-17T01:25:10.449Z,988.09
2018-01-17T01:26:10.399Z,988.23
2018-01-17T01:27:10.353Z,988.38
2018-01-17T01:28:10.307Z,988.17
2018-01-17T01:29:10.254Z,988.24
2018-01-17T01:30:10.225Z,988.24
2018-01-17T01:31:10.163Z,988.29
2018-01-17T01:32:10.116Z,988.20
2018-01-17T01:33:10.069Z,988.30
2018-01-17T01:34:10.018Z,988.30
2018-01-17T01:35:09.972Z,988.31
2018-01-17T01:36:09.917Z,988.33
2018-01-17T01:37:09.872Z,988.40
2018-01-17T01:38:09.827Z,988.40
2018-01-17T01:39:09.759Z,988.50
2018-01-17T01:40:09.709Z,988.54
2018-01-17T01:41:09.665Z,988.60
2018-01-17T01:42:09.629Z,988.59
2018-01-17T01:43:09.574Z,988.76
2018-01-17T01:44:09.523Z,988.69
2018-01-17T01:45:09.476Z,988.65
2018-01-17T01:46:09.424Z,988.76
2018-01-17T01:47:09.419Z,988.74
2018-01-17T01:48:09.325Z,988.79
2018-01-17T01:49:09.281Z,988.87
2018-01-17T01:50:09.228Z,988.81
2018-01-17T01:51:09.178Z,988.83
2018-01-17T01:52:09.127Z,988.82
2018-01-17T01:53:09.079Z,988.99
2018-01-17T01:54:09.028Z,988.99
2018-01-17T01:55:08.980Z,989.09
2018-01-17T01:56:08.929Z,989.06
2018-01-17T01:57:08.881Z,989.06
2018-01-17T01:58:08.830Z,989.09
2018-01-17T01:59:08.784Z,989.15
2018-01-17T02:00:08.744Z,989.10
2018-01-17T02:01:08.683Z,989.03
2018-01-17T02:02:08.629Z,989.00
2018-01-17T02:03:08.582Z,988.96
2018-01-17T02:04:08.529Z,988.91
2018-01-17T02:05:08.482Z,988.84
2018-01-17T02:06:08.430Z,988.76
2018-01-17T02:07:08.384Z,988.69
2018-01-17T02:08:08.332Z,988.74
2018-01-17T02:09:08.282Z,988.77
2018-01-17T02:10:08.238Z,988.76
2018-01-17T02:11:08.183Z,988.82
2018-01-17T02:12:08.135Z,988.86
2018-01-17T02:13:08.079Z,988.79
2018-01-17T02:14:08.030Z,988.83
2018-01-17T02:15:07.980Z,988.82
2018-01-17T02:16:07.930Z,988.86
2018-01-17T02:17:07.882Z,988.86
2018-01-17T02:18:07.834Z,988.85
2018-01-17T02:19:07.771Z,988.86
2018-01-17T02:20:07.721Z,988.83
2018-01-17T02:21:07.668Z,988.79
2018-01-17T02:22:07.616Z,988.74
2018-01-17T02:23:07.567Z,988.84
2018-01-17T02:24:07.518Z,988.96
2018-01-17T02:25:07.465Z,988.97
2018-01-17T02:26:07.417Z,989.01
2018-01-17T02:27:07.365Z,989.00
2018-01-17T02:28:07.317Z,989.00
2018-01-17T02:29:07.273Z,989.05
2018-01-17T02:30:07.216Z,989.02
2018-01-17T02:31:07.165Z,988.96
2018-01-17T02:32:07.116Z,988.93
2018-01-17T02:33:07.064Z,988.92
2018-01-17T02:34:07.017Z,988.88
2018-01-17T02:35:06.972Z,988.87
2018-01-17T02:36:06.913Z,988.98
2018-01-17T02:37:06.866Z,989.07
2018-01-17T02:38:06.813Z,989.07
2018-01-17T02:39:06.770Z,989.10
2018-01-17T02:40:06.716Z,989.10
2018-01-17T02:41:06.663Z,989.09
2018-01-17T02:42:06.616Z,989.11
2018-01-17T02:43:06.566Z,989.14
2018-01-17T02:44:06.517Z,989.15
2018-01-17T02:45:06.465Z,989.13
2018-01-17T02:46:06.414Z,989.11
2018-01-17T02:47:06.370Z,989.04
2018-01-17T02:48:06.317Z,989.02
2018-01-17T02:49:06.268Z,989.04
2018-01-17T02:50:06.213Z,989.04
2018-01-17T02:51:06.167Z,989.06
2018-01-17T02:52:06.113Z,989.07
2018-01-17T02:53:06.066Z,989.05
2018-01-17T02:54:06.015Z,989.04
2018-01-17T02:55:05.968Z,989.05
2018-01-17T02:56:05.910Z,989.04
2018-01-17T02:57:05.868Z,989.05
2018-01-17T02:58:05.814Z,988.99
2018-01-17T02:59:05.764Z,989.00
2018-01-17T03:00:05.711Z,988.93
2018-01-17T03:01:05.662Z,988.94
2018-01-17T03:02:05.614Z,988.92
2018-01-17T03:03:05.560Z,988.95
2018-01-17T03:04:05.510Z,988.92
2018-01-17T03:05:05.458Z,988.94
2018-01-17T03:06:05.411Z,988.94
2018-01-17T03:07:05.359Z,988.92
2018-01-17T03:08:05.307Z,988.94
2018-01-17T03:09:05.263Z,988.89
2018-01-17T03:10:05.213Z,988.90
2018-01-17T03:11:05.160Z,988.87
2018-01-17T03:12:05.111Z,988.83
2018-01-17T03:13:05.057Z,988.84
2018-01-17T03:14:05.011Z,988.90
2018-01-17T03:15:04.961Z,988.81
2018-01-17T03:16:04.909Z,988.80
2018-01-17T03:17:04.858Z,988.82
2018-01-17T03:18:04.810Z,988.78
2018-01-17T03:19:04.757Z,988.77
2018-01-17T03:20:04.707Z,988.78
2018-01-17T03:21:04.661Z,988.77
2018-01-17T03:22:04.608Z,988.74
2018-01-17T03:23:04.561Z,988.81
2018-01-17T03:24:04.505Z,988.81
2018-01-17T03:25:04.457Z,988.84
2018-01-17T03:26:04.407Z,988.83
2018-01-17T03:27:04.363Z,988.82
2018-01-17T03:28:04.305Z,988.82
2018-01-17T03:29:04.258Z,988.83
2018-01-17T03:30:04.207Z,988.87
2018-01-17T03:31:04.166Z,988.89
2018-01-17T03:32:04.104Z,988.91
2018-01-17T03:33:04.056Z,988.87
2018-01-17T03:34:04.005Z,988.96
2018-01-17T03:35:03.956Z,989.00
2018-01-17T03:36:03.907Z,988.96
2018-01-17T03:37:03.859Z,989.01
2018-01-17T03:38:03.803Z,989.06
2018-01-17T03:39:03.755Z,989.09
2018-01-17T03:40:03.706Z,989.10
2018-01-17T03:41:03.806Z,989.18
2018-01-17T03:42:03.608Z,989.19
2018-01-17T03:43:03.559Z,989.17
2018-01-17T03:44:03.502Z,989.15
2018-01-17T03:45:03.459Z,989.18
2018-01-17T03:46:03.405Z,989.20
2018-01-17T03:47:03.355Z,989.28
2018-01-17T03:48:03.302Z,989.20
2018-01-17T03:49:03.253Z,989.23
2018-01-17T03:50:03.202Z,989.22
2018-01-17T03:51:03.157Z,989.30
2018-01-17T03:52:03.102Z,989.33
2018-01-17T03:53:03.053Z,989.30
2018-01-17T03:54:03.001Z,989.30
2018-01-17T03:55:02.955Z,989.39
2018-01-17T03:56:02.901Z,989.42
2018-01-17T03:57:02.852Z,989.39
2018-01-17T03:58:02.800Z,989.42
2018-01-17T03:59:02.751Z,989.43
2018-01-17T04:00:02.703Z,989.44
2018-01-17T04:01:02.650Z,989.43
2018-01-17T04:02:02.600Z,989.54
2018-01-17T04:03:02.552Z,989.52
2018-01-17T04:04:02.513Z,989.56
2018-01-17T04:05:02.452Z,989.53
2018-01-17T04:06:02.404Z,989.59
2018-01-17T04:07:02.354Z,989.65
2018-01-17T04:08:02.302Z,989.64
2018-01-17T04:09:02.251Z,989.71
2018-01-17T04:10:02.199Z,989.64
2018-01-17T04:11:02.150Z,989.65
2018-01-17T04:12:02.104Z,989.66
2018-01-17T04:13:02.056Z,989.71
2018-01-17T04:14:02.003Z,989.63
2018-01-17T04:15:01.950Z,989.64
2018-01-17T04:16:01.902Z,989.74
2018-01-17T04:17:01.855Z,989.69
2018-01-17T04:18:01.804Z,989.65
2018-01-17T04:19:01.757Z,989.64
2018-01-17T04:20:01.698Z,989.64
2018-01-17T04:21:01.649Z,989.70
2018-01-17T04:22:01.600Z,989.70
2018-01-17T04:23:01.575Z,989.67
2018-01-17T04:24:01.501Z,989.63
2018-01-17T04:25:01.448Z,989.62
2018-01-17T04:26:01.399Z,989.56
2018-01-17T04:27:01.350Z,989.63
2018-01-17T04:28:01.301Z,989.63
2018-01-17T04:29:01.254Z,989.73
2018-01-17T04:30:01.198Z,989.71
2018-01-17T04:31:01.150Z,989.69
2018-01-17T04:32:01.098Z,989.73
2018-01-17T04:33:01.048Z,989.75
2018-01-17T04:34:00.998Z,989.70
2018-01-17T04:35:00.949Z,989.79
2018-01-17T04:36:00.898Z,989.79
2018-01-17T04:37:00.847Z,989.77
2018-01-17T04:38:00.803Z,989.76
2018-01-17T04:39:00.751Z,989.86
2018-01-17T04:40:00.697Z,989.84
2018-01-17T04:41:00.651Z,989.82
2018-01-17T04:42:00.602Z,989.90
2018-01-17T04:43:00.555Z,989.91
2018-01-17T04:44:00.497Z,989.88
2018-01-17T04:45:00.453Z,989.94
2018-01-17T04:46:00.407Z,990.04
2018-01-17T04:47:00.349Z,990.20
2018-01-17T04:48:00.299Z,990.12
2018-01-17T04:49:00.250Z,990.12
2018-01-17T04:50:00.202Z,990.25
2018-01-17T04:51:00.150Z,990.23
2018-01-17T04:52:00.100Z,990.15
2018-01-17T04:53:00.053Z,990.21
2018-01-17T04:54:00.001Z,990.35
2018-01-17T04:54:59.951Z,990.38
2018-01-17T04:55:59.899Z,990.39
2018-01-17T04:56:59.850Z,990.42
2018-01-17T04:57:59.800Z,990.46
2018-01-17T04:58:59.754Z,990.44
2018-01-17T04:59:59.702Z,990.49
2018-01-17T05:00:59.648Z,990.44
2018-01-17T05:01:59.600Z,990.45
2018-01-17T05:02:59.558Z,990.43
2018-01-17T05:03:59.502Z,990.48
2018-01-17T05:04:59.450Z,990.46
2018-01-17T05:05:59.403Z,990.51
2018-01-17T05:06:59.371Z,990.49
2018-01-17T05:07:59.303Z,990.52
2018-01-17T05:08:59.251Z,990.52
2018-01-17T05:09:59.205Z,990.55
2018-01-17T05:10:59.158Z,990.55
2018-01-17T05:11:59.107Z,990.49
2018-01-17T05:12:59.053Z,990.59
2018-01-17T05:13:59.007Z,990.63
2018-01-17T05:14:58.962Z,990.65
2018-01-17T05:15:58.907Z,990.70
2018-01-17T05:16:58.852Z,990.76
2018-01-17T05:17:58.804Z,990.75
2018-01-17T05:18:58.752Z,990.77
2018-01-17T05:19:58.704Z,990.88
2018-01-17T05:20:58.653Z,990.89
2018-01-17T05:21:58.602Z,990.88
2018-01-17T05:22:58.555Z,990.95
2018-01-17T05:23:58.502Z,990.93
2018-01-17T05:24:58.453Z,990.90
2018-01-17T05:25:58.407Z,990.94
2018-01-17T05:26:58.355Z,990.97
2018-01-17T05:27:58.304Z,991.02
2018-01-17T05:28:58.257Z,991.01
2018-01-17T05:29:58.202Z,990.95
2018-01-17T05:30:58.157Z,990.94
2018-01-17T05:31:58.104Z,991.06
2018-01-17T05:32:58.062Z,991.02
2018-01-17T05:33:58.007Z,991.03
2018-01-17T05:34:57.954Z,991.08
2018-01-17T05:35:57.905Z,991.08
2018-01-17T05:36:57.855Z,991.11
2018-01-17T05:37:57.805Z,991.13
2018-01-17T05:38:57.758Z,991.17
2018-01-17T05:39:57.708Z,991.15
2018-01-17T05:40:57.652Z,991.16
2018-01-17T05:41:57.604Z,991.12
2018-01-17T05:42:57.557Z,991.19
2018-01-17T05:43:57.505Z,991.19
2018-01-17T05:44:57.456Z,991.17
2018-01-17T05:45:57.404Z,991.22
2018-01-17T05:46:57.361Z,991.28
2018-01-17T05:47:57.307Z,991.26
2018-01-17T05:48:57.259Z,991.27
2018-01-17T05:49:57.210Z,991.32
2018-01-17T05:50:57.156Z,991.29
2018-01-17T05:51:57.109Z,991.35
2018-01-17T05:52:57.071Z,991.30
2018-01-17T05:53:57.006Z,991.34
2018-01-17T05:54:56.956Z,991.42
2018-01-17T05:55:56.905Z,991.38
2018-01-17T05:56:56.856Z,991.37
2018-01-17T05:57:56.806Z,991.40
2018-01-17T05:58:56.758Z,991.39
2018-01-17T05:59:56.719Z,991.45
2018-01-17T06:00:56.659Z,991.41
2018-01-17T06:01:56.607Z,991.55
2018-01-17T06:02:56.556Z,991.45
2018-01-17T06:03:56.506Z,991.44
2018-01-17T06:04:56.458Z,991.54
2018-01-17T06:05:56.409Z,991.56
2018-01-17T06:06:56.365Z,991.65
2018-01-17T06:07:56.307Z,991.56
2018-01-17T06:08:56.256Z,991.59
2018-01-17T06:09:56.207Z,991.61
2018-01-17T06:10:56.159Z,991.63
2018-01-17T06:11:56.106Z,991.61
2018-01-17T06:12:56.057Z,991.69
2018-01-17T06:13:56.013Z,991.77
2018-01-17T06:14:55.962Z,991.68
2018-01-17T06:15:55.909Z,991.72
2018-01-17T06:16:55.859Z,991.81
2018-01-17T06:17:55.806Z,991.80
2018-01-17T06:18:55.760Z,991.77
2018-01-17T06:19:55.706Z,991.82
2018-01-17T06:20:55.656Z,991.84
2018-01-17T06:21:55.605Z,991.86
2018-01-17T06:22:55.557Z,991.90
2018-01-17T06:23:55.506Z,991.90
2018-01-17T06:24:55.460Z,991.94
2018-01-17T06:25:55.408Z,991.93
2018-01-17T06:26:55.357Z,991.96
2018-01-17T06:27:55.306Z,991.90
2018-01-17T06:28:55.257Z,991.92
2018-01-17T06:29:55.210Z,991.99
2018-01-17T06:30:55.156Z,991.99
2018-01-17T06:31:55.129Z,992.04
2018-01-17T06:32:55.059Z,992.11
2018-01-17T06:33:55.009Z,992.16
2018-01-17T06:34:54.958Z,992.06
2018-01-17T06:35:54.914Z,992.08
2018-01-17T06:36:54.857Z,992.12
2018-01-17T06:37:54.811Z,992.14
2018-01-17T06:38:54.762Z,992.23
2018-01-17T06:39:54.713Z,992.22
2018-01-17T06:40:54.658Z,992.29
2018-01-17T06:41:54.610Z,992.28
2018-01-17T06:42:54.559Z,992.27
2018-01-17T06:43:54.510Z,992.28
2018-01-17T06:44:54.461Z,992.34
2018-01-17T06:45:54.416Z,992.36
2018-01-17T06:46:54.364Z,992.47
2018-01-17T06:47:54.307Z,992.51
2018-01-17T06:48:54.263Z,992.47
2018-01-17T06:49:54.220Z,992.48
2018-01-17T06:50:54.176Z,992.51
2018-01-17T06:51:54.110Z,992.50
2018-01-17T06:52:54.061Z,992.59
2018-01-17T06:53:54.012Z,992.59
2018-01-17T06:54:53.960Z,992.60
2018-01-17T06:55:53.911Z,992.66
2018-01-17T06:56:53.859Z,992.72
2018-01-17T06:57:53.810Z,992.77
2018-01-17T06:58:53.760Z,992.72
2018-01-17T06:59:53.709Z,992.78
2018-01-17T07:00:53.699Z,992.72
2018-01-17T07:01:53.611Z,992.83
2018-01-17T07:02:53.563Z,992.78
2018-01-17T07:03:53.512Z,992.80
2018-01-17T07:04:53.458Z,992.82
2018-01-17T07:05:53.409Z,992.83
2018-01-17T07:06:53.360Z,992.84
2018-01-17T07:07:53.307Z,992.87
2018-01-17T07:08:53.265Z,992.86
2018-01-17T07:09:53.211Z,992.85
2018-01-17T07:10:53.162Z,992.88
2018-01-17T07:11:53.111Z,992.89
2018-01-17T07:12:53.062Z,992.89
2018-01-17T07:13:53.010Z,992.93
2018-01-17T07:14:52.961Z,992.94
2018-01-17T07:15:52.913Z,993.01
2018-01-17T07:16:52.865Z,992.98
2018-01-17T07:17:52.809Z,992.95
2018-01-17T07:18:52.769Z,993.04
2018-01-17T07:19:52.709Z,993.10
2018-01-17T07:20:52.662Z,993.13
2018-01-17T07:21:52.617Z,993.11
2018-01-17T07:22:52.562Z,993.19
2018-01-17T07:23:52.570Z,993.27
2018-01-17T07:24:52.482Z,993.22
2018-01-17T07:25:52.425Z,993.15
2018-01-17T07:26:52.375Z,993.27
2018-01-17T07:27:52.315Z,993.18
2018-01-17T07:28:52.266Z,993.24
2018-01-17T07:29:52.215Z,993.19
2018-01-17T07:30:52.164Z,993.21
2018-01-17T07:31:52.114Z,993.13
2018-01-17T07:32:52.072Z,993.18
2018-01-17T07:33:52.014Z,993.31
2018-01-17T07:34:51.968Z,993.26
2018-01-17T07:35:51.915Z,993.33
2018-01-17T07:36:51.862Z,993.49
2018-01-17T07:37:51.818Z,993.41
2018-01-17T07:38:51.764Z,993.41
2018-01-17T07:39:51.714Z,993.53
2018-01-17T07:40:51.663Z,993.57
2018-01-17T07:41:51.617Z,993.58
2018-01-17T07:42:51.564Z,993.55
2018-01-17T07:43:51.519Z,993.61
2018-01-17T07:44:51.464Z,993.68
2018-01-17T07:45:51.416Z,993.68
2018-01-17T07:46:51.367Z,993.72
2018-01-17T07:47:51.313Z,993.80
2018-01-17T07:48:51.267Z,993.83
2018-01-17T07:49:51.220Z,993.80
2018-01-17T07:50:51.165Z,993.77
2018-01-17T07:51:51.117Z,993.80
2018-01-17T07:52:51.064Z,993.91
2018-01-17T07:53:51.021Z,993.83
2018-01-17T07:54:50.965Z,993.88
2018-01-17T07:55:50.914Z,993.95
2018-01-17T07:56:50.868Z,994.06
2018-01-17T07:57:50.817Z,994.12
2018-01-17T07:58:50.774Z,994.12
2018-01-17T07:59:50.727Z,994.11
2018-01-17T08:00:50.680Z,994.16
2018-01-17T08:01:50.622Z,994.12
2018-01-17T08:02:50.569Z,994.21
2018-01-17T08:03:50.523Z,994.29
2018-01-17T08:04:50.501Z,994.22
2018-01-17T08:05:50.416Z,994.31
2018-01-17T08:06:50.368Z,994.25
2018-01-17T08:07:50.316Z,994.32
2018-01-17T08:08:50.268Z,994.26
2018-01-17T08:09:50.218Z,994.32
2018-01-17T08:10:50.175Z,994.30
2018-01-17T08:11:50.117Z,994.37
2018-01-17T08:12:50.068Z,994.40
2018-01-17T08:13:50.016Z,994.34
2018-01-17T08:14:49.968Z,994.35
2018-01-17T08:15:49.919Z,994.31
2018-01-17T08:16:49.869Z,994.35
2018-01-17T08:17:49.819Z,994.31
2018-01-17T08:18:49.773Z,994.28
2018-01-17T08:19:49.721Z,994.31
2018-01-17T08:20:49.671Z,994.24
2018-01-17T08:21:49.624Z,994.28
2018-01-17T08:22:49.571Z,994.37
2018-01-17T08:23:49.551Z,994.32
2018-01-17T08:24:49.471Z,994.42
2018-01-17T08:25:49.419Z,994.31
2018-01-17T08:26:49.368Z,994.43
2018-01-17T08:27:49.316Z,994.44
2018-01-17T08:28:49.269Z,994.45
2018-01-17T08:29:49.218Z,994.43
2018-01-17T08:30:49.169Z,994.47
2018-01-17T08:31:49.116Z,994.49
2018-01-17T08:32:49.067Z,994.54
2018-01-17T08:33:49.028Z,994.60
2018-01-17T08:34:48.969Z,994.63
2018-01-17T08:35:48.918Z,994.61
2018-01-17T08:36:48.869Z,994.54
2018-01-17T08:37:48.831Z,994.57
2018-01-17T08:38:48.769Z,994.66
2018-01-17T08:39:48.721Z,994.72
2018-01-17T08:40:48.673Z,994.72
2018-01-17T08:41:48.619Z,994.77
2018-01-17T08:42:48.569Z,994.80
2018-01-17T08:43:48.522Z,994.79
2018-01-17T08:44:48.469Z,994.91
2018-01-17T08:45:48.418Z,994.94
2018-01-17T08:46:48.371Z,994.93
2018-01-17T08:47:48.318Z,994.85
2018-01-17T08:48:48.270Z,994.90
2018-01-17T08:49:48.226Z,994.93
2018-01-17T08:50:48.173Z,994.85
2018-01-17T08:51:48.144Z,994.94
2018-01-17T08:52:48.070Z,994.99
2018-01-17T08:53:48.076Z,994.97
2018-01-17T08:54:47.973Z,995.07
2018-01-17T08:55:47.918Z,995.03
2018-01-17T08:56:47.876Z,995.02
2018-01-17T08:57:47.820Z,995.03
2018-01-17T08:58:47.772Z,995.11
2018-01-17T08:59:47.722Z,995.13
2018-01-17T09:00:47.672Z,995.17
2018-01-17T09:01:47.621Z,995.20
2018-01-17T09:02:47.570Z,995.31
2018-01-17T09:03:47.521Z,995.28
2018-01-17T09:04:47.473Z,995.27
2018-01-17T09:05:47.421Z,995.29
2018-01-17T09:06:47.372Z,995.32
2018-01-17T09:07:47.324Z,995.40
2018-01-17T09:08:47.276Z,995.37
2018-01-17T09:09:47.224Z,995.43
2018-01-17T09:10:47.173Z,995.49
2018-01-17T09:11:47.123Z,995.49
2018-01-17T09:12:47.073Z,995.51
2018-01-17T09:13:47.026Z,995.47
2018-01-17T09:14:46.975Z,995.45
2018-01-17T09:15:46.924Z,995.43
2018-01-17T09:16:46.874Z,995.49
2018-01-17T09:17:46.824Z,995.46
2018-01-17T09:18:46.773Z,995.45
2018-01-17T09:19:46.728Z,995.51
2018-01-17T09:20:46.674Z,995.56
2018-01-17T09:21:46.630Z,995.60
2018-01-17T09:22:46.578Z,995.64
2018-01-17T09:23:46.525Z,995.67
2018-01-17T09:24:46.477Z,995.61
2018-01-17T09:25:46.426Z,995.64
2018-01-17T09:26:46.377Z,995.66
2018-01-17T09:27:46.327Z,995.70
2018-01-17T09:28:46.286Z,995.72
2018-01-17T09:29:46.231Z,995.76
2018-01-17T09:30:46.178Z,995.75
2018-01-17T09:31:46.131Z,995.76
2018-01-17T09:32:46.079Z,995.75
2018-01-17T09:33:46.032Z,995.82
2018-01-17T09:34:45.981Z,995.79
2018-01-17T09:35:45.931Z,995.78
2018-01-17T09:36:45.878Z,995.78
2018-01-17T09:37:45.830Z,995.79
2018-01-17T09:38:45.780Z,995.74
2018-01-17T09:39:45.728Z,995.81
2018-01-17T09:40:45.679Z,995.78
2018-01-17T09:41:45.629Z,995.75
2018-01-17T09:42:45.584Z,995.79
2018-01-17T09:43:45.533Z,995.78
2018-01-17T09:44:45.496Z,995.80
2018-01-17T09:45:45.430Z,995.81
2018-01-17T09:46:45.381Z,995.87
2018-01-17T09:47:45.330Z,995.86
2018-01-17T09:48:45.283Z,995.85
2018-01-17T09:49:45.232Z,995.83
2018-01-17T09:50:45.182Z,996.00
2018-01-17T09:51:45.133Z,995.96
2018-01-17T09:52:45.081Z,995.96
2018-01-17T09:53:45.033Z,995.92
2018-01-17T09:54:44.982Z,995.92
2018-01-17T09:55:44.931Z,996.00
2018-01-17T09:56:44.884Z,996.01
2018-01-17T09:57:44.835Z,996.07
2018-01-17T09:58:44.786Z,996.05
2018-01-17T09:59:44.733Z,995.95
2018-01-17T10:00:44.683Z,996.06
2018-01-17T10:01:44.633Z,996.17
2018-01-17T10:02:44.585Z,996.16
2018-01-17T10:03:44.534Z,996.24
2018-01-17T10:04:44.483Z,996.08
2018-01-17T10:05:44.437Z,996.10
2018-01-17T10:06:44.384Z,996.15
2018-01-17T10:07:44.340Z,996.21
2018-01-17T10:08:44.297Z,996.13
2018-01-17T10:09:44.235Z,996.11
2018-01-17T10:10:44.188Z,996.12
2018-01-17T10:11:44.137Z,996.18
2018-01-17T10:12:44.087Z,996.20
2018-01-17T10:13:44.036Z,996.18
2018-01-17T10:14:43.991Z,996.04
2018-01-17T10:15:43.937Z,996.16
2018-01-17T10:16:43.888Z,996.18
2018-01-17T10:17:43.839Z,996.12
2018-01-17T10:18:43.794Z,996.19
2018-01-17T10:19:43.736Z,996.18
2018-01-17T10:20:43.688Z,996.16
2018-01-17T10:21:43.641Z,996.26
2018-01-17T10:22:43.596Z,996.26
2018-01-17T10:23:43.543Z,996.27
2018-01-17T10:24:43.491Z,996.25
2018-01-17T10:25:43.445Z,996.32
2018-01-17T10:26:43.393Z,996.35
2018-01-17T10:27:43.342Z,996.42
2018-01-17T10:28:43.295Z,996.45
2018-01-17T10:29:43.246Z,996.42
2018-01-17T10:30:43.198Z,996.39
2018-01-17T10:31:43.149Z,996.42
2018-01-17T10:32:43.094Z,996.39
2018-01-17T10:33:43.045Z,996.47
2018-01-17T10:34:42.999Z,996.44
2018-01-17T10:35:42.953Z,996.49
2018-01-17T10:36:42.896Z,996.50
2018-01-17T10:37:42.848Z,996.54
2018-01-17T10:38:42.803Z,996.52
2018-01-17T10:39:42.748Z,996.54
2018-01-17T10:40:42.698Z,996.58
2018-01-17T10:41:42.651Z,996.53
2018-01-17T10:42:42.601Z,996.49
2018-01-17T10:43:42.551Z,996.58
2018-01-17T10:44:42.504Z,996.64
2018-01-17T10:45:42.458Z,996.68
2018-01-17T10:46:42.412Z,996.61
2018-01-17T10:47:42.359Z,996.68
2018-01-17T10:48:42.306Z,996.72
2018-01-17T10:49:42.256Z,996.68
2018-01-17T10:50:42.216Z,996.63
2018-01-17T10:51:42.157Z,996.63
2018-01-17T10:52:42.108Z,996.68
2018-01-17T10:53:42.064Z,996.62
2018-01-17T10:54:42.012Z,996.65
2018-01-17T10:55:41.962Z,996.70
2018-01-17T10:56:41.911Z,996.69
2018-01-17T10:57:41.864Z,996.63
2018-01-17T10:58:41.814Z,996.62
2018-01-17T10:59:41.762Z,996.72
2018-01-17T11:00:41.716Z,996.68
2018-01-17T11:01:41.669Z,996.67
2018-01-17T11:02:41.616Z,996.70
2018-01-17T11:03:41.566Z,996.72
2018-01-17T11:04:41.518Z,996.73
2018-01-17T11:05:41.470Z,996.73
2018-01-17T11:06:41.421Z,996.78
2018-01-17T11:07:41.373Z,996.83
2018-01-17T11:08:41.333Z,996.78
2018-01-17T11:09:41.271Z,996.75
2018-01-17T11:10:41.224Z,996.79
2018-01-17T11:11:41.178Z,996.81
2018-01-17T11:12:41.121Z,996.70
2018-01-17T11:13:41.074Z,996.80
2018-01-17T11:14:41.026Z,996.80
2018-01-17T11:15:40.975Z,996.69
2018-01-17T11:16:40.937Z,996.78
2018-01-17T11:17:40.880Z,996.80
2018-01-17T11:18:40.828Z,996.85
2018-01-17T11:19:40.779Z,996.83
2018-01-17T11:20:40.731Z,996.72
2018-01-17T11:21:40.681Z,996.77
2018-01-17T11:22:40.632Z,996.80
2018-01-17T11:23:40.584Z,996.88
2018-01-17T11:24:40.551Z,996.81
2018-01-17T11:25:40.482Z,996.79
2018-01-17T11:26:40.442Z,996.80
2018-01-17T11:27:40.385Z,996.79
2018-01-17T11:28:40.337Z,996.90
2018-01-17T11:29:40.290Z,996.84
2018-01-17T11:30:40.240Z,996.89
2018-01-17T11:31:40.187Z,996.89
2018-01-17T11:32:40.140Z,996.87
2018-01-17T11:33:40.093Z,996.86
2018-01-17T11:34:40.043Z,996.93
2018-01-17T11:35:39.990Z,996.90
2018-01-17T11:36:39.948Z,996.94
2018-01-17T11:37:39.900Z,997.01
2018-01-17T11:38:39.848Z,997.03
2018-01-17T11:39:39.795Z,997.07
2018-01-17T11:40:39.792Z,997.02
2018-01-17T11:41:39.696Z,997.01
2018-01-17T11:42:39.649Z,997.01
2018-01-17T11:43:39.596Z,997.10
2018-01-17T11:44:42.109Z,997.06
2018-01-17T11:45:39.500Z,997.12
2018-01-17T11:46:39.452Z,997.02
2018-01-17T11:47:39.405Z,997.08
2018-01-17T11:48:39.356Z,997.06
2018-01-17T11:49:39.305Z,997.12
2018-01-17T11:50:39.253Z,997.02
2018-01-17T11:51:39.203Z,997.06
2018-01-17T11:52:39.154Z,997.05
2018-01-17T11:53:39.106Z,997.02
2018-01-17T11:54:39.060Z,997.08
2018-01-17T11:55:39.007Z,997.17
2018-01-17T11:56:38.961Z,997.14
2018-01-17T11:57:38.911Z,997.15
2018-01-17T11:58:38.860Z,997.10
2018-01-17T11:59:38.809Z,997.11
2018-01-17T12:00:38.759Z,997.04
2018-01-17T12:01:38.710Z,997.12
2018-01-17T12:02:38.658Z,997.09
2018-01-17T12:03:38.608Z,997.02
2018-01-17T12:04:38.565Z,997.09
2018-01-17T12:05:38.513Z,997.13
2018-01-17T12:06:38.473Z,997.11
2018-01-17T12:07:38.417Z,997.09
2018-01-17T12:08:38.375Z,997.16
2018-01-17T12:09:38.318Z,997.10
2018-01-17T12:10:38.276Z,997.20
2018-01-17T12:11:38.219Z,997.12
2018-01-17T12:12:38.165Z,997.11
2018-01-17T12:13:38.121Z,997.15
2018-01-17T12:14:38.069Z,997.15
2018-01-17T12:15:38.022Z,997.11
2018-01-17T12:16:37.971Z,997.11
2018-01-17T12:17:37.924Z,997.11
2018-01-17T12:18:37.873Z,997.12
2018-01-17T12:19:37.823Z,997.12
2018-01-17T12:20:37.775Z,997.22
2018-01-17T12:21:37.721Z,997.13
2018-01-17T12:22:37.680Z,997.11
2018-01-17T12:23:37.623Z,997.21
2018-01-17T12:24:37.573Z,997.18
2018-01-17T12:25:37.525Z,997.30
2018-01-17T12:26:37.478Z,997.31
2018-01-17T12:27:37.427Z,997.36